sensor_id;sensor_type;location;lat;lon;timestamp;temperature;humidity
45339;DHT22;31071;51.478;5.710;2023-04-25T00:02:04;7.40;99.90
45339;DHT22;31071;51.478;5.710;2023-04-25T00:04:30;7.40;99.90
45339;DHT22;31071;51.478;5.710;2023-04-25T00:06:59;7.40;99.90
45339;DHT22;31071;51.478;5.710;2023-04-25T00:09:27;7.40;99.90
45339;DHT22;31071;51.478;5.710;2023-04-25T00:11:52;7.40;99.90
45339;DHT22;31071;51.478;5.710;2023-04-25T00:14:18;7.40;99.90
45339;DHT22;31071;51.478;5.710;2023-04-25T00:16:44;7.40;99.90
45339;DHT22;31071;51.478;5.710;2023-04-25T00:19:10;7.40;99.90
45339;DHT22;31071;51.478;5.710;2023-04-25T00:21:36;7.40;99.90
45339;DHT22;31071;51.478;5.710;2023-04-25T00:24:03;7.30;99.90
45339;DHT22;31071;51.478;5.710;2023-04-25T00:26:28;7.40;99.90
45339;DHT22;31071;51.478;5.710;2023-04-25T00:28:54;7.40;99.90
45339;DHT22;31071;51.478;5.710;2023-04-25T00:31:19;8.10;99.90
45339;DHT22;31071;51.478;5.710;2023-04-25T00:33:45;7.40;99.90
45339;DHT22;31071;51.478;5.710;2023-04-25T00:36:10;7.40;99.90
45339;DHT22;31071;51.478;5.710;2023-04-25T00:38:36;7.30;99.90
45339;DHT22;31071;51.478;5.710;2023-04-25T00:41:05;7.30;99.90
45339;DHT22;31071;51.478;5.710;2023-04-25T00:43:32;7.30;99.90
45339;DHT22;31071;51.478;5.710;2023-04-25T00:46:00;7.30;99.90
45339;DHT22;31071;51.478;5.710;2023-04-25T00:48:26;7.30;99.90
45339;DHT22;31071;51.478;5.710;2023-04-25T00:50:53;7.30;99.90
45339;DHT22;31071;51.478;5.710;2023-04-25T00:53:22;7.40;99.90
45339;DHT22;31071;51.478;5.710;2023-04-25T00:55:47;7.30;99.90
45339;DHT22;31071;51.478;5.710;2023-04-25T00:58:16;7.30;99.90
45339;DHT22;31071;51.478;5.710;2023-04-25T01:00:42;7.20;99.90
45339;DHT22;31071;51.478;5.710;2023-04-25T01:03:09;7.10;99.90
45339;DHT22;31071;51.478;5.710;2023-04-25T01:05:35;7.10;99.90
45339;DHT22;31071;51.478;5.710;2023-04-25T01:08:01;7.00;99.90
45339;DHT22;31071;51.478;5.710;2023-04-25T01:10:26;7.00;99.90
45339;DHT22;31071;51.478;5.710;2023-04-25T01:12:52;7.00;99.90
45339;DHT22;31071;51.478;5.710;2023-04-25T01:15:17;6.90;99.90
45339;DHT22;31071;51.478;5.710;2023-04-25T01:17:43;6.90;99.90
45339;DHT22;31071;51.478;5.710;2023-04-25T01:20:10;6.90;99.90
45339;DHT22;31071;51.478;5.710;2023-04-25T01:22:36;7.00;99.90
45339;DHT22;31071;51.478;5.710;2023-04-25T01:25:02;7.00;99.90
45339;DHT22;31071;51.478;5.710;2023-04-25T01:27:28;6.90;99.90
45339;DHT22;31071;51.478;5.710;2023-04-25T01:29:54;6.90;99.90
45339;DHT22;31071;51.478;5.710;2023-04-25T01:32:22;6.80;99.90
45339;DHT22;31071;51.478;5.710;2023-04-25T01:34:47;6.80;99.90
45339;DHT22;31071;51.478;5.710;2023-04-25T01:37:13;6.80;99.90
45339;DHT22;31071;51.478;5.710;2023-04-25T01:39:38;6.70;99.90
45339;DHT22;31071;51.478;5.710;2023-04-25T01:42:04;6.60;99.90
45339;DHT22;31071;51.478;5.710;2023-04-25T01:44:30;6.60;99.90
45339;DHT22;31071;51.478;5.710;2023-04-25T01:46:55;6.50;99.90
45339;DHT22;31071;51.478;5.710;2023-04-25T01:49:21;6.30;99.90
45339;DHT22;31071;51.478;5.710;2023-04-25T01:51:46;6.30;99.90
45339;DHT22;31071;51.478;5.710;2023-04-25T01:54:12;6.30;99.90
45339;DHT22;31071;51.478;5.710;2023-04-25T01:56:38;6.20;99.90
45339;DHT22;31071;51.478;5.710;2023-04-25T01:59:05;6.20;99.90
45339;DHT22;31071;51.478;5.710;2023-04-25T02:01:31;6.10;99.90
45339;DHT22;31071;51.478;5.710;2023-04-25T02:03:57;6.10;99.90
45339;DHT22;31071;51.478;5.710;2023-04-25T02:06:22;6.20;99.90
45339;DHT22;31071;51.478;5.710;2023-04-25T02:08:48;6.20;99.90
45339;DHT22;31071;51.478;5.710;2023-04-25T02:11:13;6.30;99.90
45339;DHT22;31071;51.478;5.710;2023-04-25T02:13:39;6.40;99.90
45339;DHT22;31071;51.478;5.710;2023-04-25T02:16:05;6.90;99.90
45339;DHT22;31071;51.478;5.710;2023-04-25T02:18:30;6.40;99.90
45339;DHT22;31071;51.478;5.710;2023-04-25T02:20:57;6.40;99.90
45339;DHT22;31071;51.478;5.710;2023-04-25T02:23:23;6.40;99.90
45339;DHT22;31071;51.478;5.710;2023-04-25T02:25:51;7.60;99.90
45339;DHT22;31071;51.478;5.710;2023-04-25T02:28:18;7.20;99.90
45339;DHT22;31071;51.478;5.710;2023-04-25T02:30:46;6.40;99.90
45339;DHT22;31071;51.478;5.710;2023-04-25T02:33:13;6.30;99.90
45339;DHT22;31071;51.478;5.710;2023-04-25T02:35:42;6.30;99.90
45339;DHT22;31071;51.478;5.710;2023-04-25T02:38:07;6.20;99.90
45339;DHT22;31071;51.478;5.710;2023-04-25T02:40:33;6.20;99.90
45339;DHT22;31071;51.478;5.710;2023-04-25T02:42:58;6.10;99.90
45339;DHT22;31071;51.478;5.710;2023-04-25T02:45:24;6.10;99.90
45339;DHT22;31071;51.478;5.710;2023-04-25T02:47:49;6.10;99.90
45339;DHT22;31071;51.478;5.710;2023-04-25T02:50:15;6.00;99.90
45339;DHT22;31071;51.478;5.710;2023-04-25T02:52:40;6.00;99.90
45339;DHT22;31071;51.478;5.710;2023-04-25T02:55:06;5.90;99.90
45339;DHT22;31071;51.478;5.710;2023-04-25T02:57:31;5.90;99.90
45339;DHT22;31071;51.478;5.710;2023-04-25T02:59:57;5.90;99.90
45339;DHT22;31071;51.478;5.710;2023-04-25T03:02:23;5.90;99.90
45339;DHT22;31071;51.478;5.710;2023-04-25T03:04:48;5.80;99.90
45339;DHT22;31071;51.478;5.710;2023-04-25T03:07:14;5.80;99.90
45339;DHT22;31071;51.478;5.710;2023-04-25T03:09:39;5.70;99.90
45339;DHT22;31071;51.478;5.710;2023-04-25T03:12:05;5.70;99.90
45339;DHT22;31071;51.478;5.710;2023-04-25T03:14:30;5.70;99.90
45339;DHT22;31071;51.478;5.710;2023-04-25T03:16:56;5.60;99.90
45339;DHT22;31071;51.478;5.710;2023-04-25T03:19:21;5.50;99.90
45339;DHT22;31071;51.478;5.710;2023-04-25T03:21:47;5.50;99.90
45339;DHT22;31071;51.478;5.710;2023-04-25T03:24:12;5.50;99.90
45339;DHT22;31071;51.478;5.710;2023-04-25T03:26:38;5.40;99.90
45339;DHT22;31071;51.478;5.710;2023-04-25T03:29:04;5.40;99.90
45339;DHT22;31071;51.478;5.710;2023-04-25T03:31:29;5.40;99.90
45339;DHT22;31071;51.478;5.710;2023-04-25T03:33:55;5.40;99.90
45339;DHT22;31071;51.478;5.710;2023-04-25T03:36:21;5.40;99.90
45339;DHT22;31071;51.478;5.710;2023-04-25T03:38:46;5.40;99.90
45339;DHT22;31071;51.478;5.710;2023-04-25T03:41:13;5.40;99.90
45339;DHT22;31071;51.478;5.710;2023-04-25T03:43:39;5.90;99.90
45339;DHT22;31071;51.478;5.710;2023-04-25T03:46:04;5.40;99.90
45339;DHT22;31071;51.478;5.710;2023-04-25T03:48:30;5.40;99.90
45339;DHT22;31071;51.478;5.710;2023-04-25T03:50:55;5.40;99.90
45339;DHT22;31071;51.478;5.710;2023-04-25T03:53:21;5.40;99.90
45339;DHT22;31071;51.478;5.710;2023-04-25T03:55:46;5.40;99.90
45339;DHT22;31071;51.478;5.710;2023-04-25T03:58:12;5.40;99.90
45339;DHT22;31071;51.478;5.710;2023-04-25T04:00:37;5.40;99.90
45339;DHT22;31071;51.478;5.710;2023-04-25T04:03:03;5.50;99.90
45339;DHT22;31071;51.478;5.710;2023-04-25T04:05:28;5.50;99.90
45339;DHT22;31071;51.478;5.710;2023-04-25T04:07:54;5.50;99.90
45339;DHT22;31071;51.478;5.710;2023-04-25T04:10:20;5.50;99.90
45339;DHT22;31071;51.478;5.710;2023-04-25T04:12:46;5.60;99.90
45339;DHT22;31071;51.478;5.710;2023-04-25T04:15:11;5.60;99.90
45339;DHT22;31071;51.478;5.710;2023-04-25T04:17:37;5.60;99.90
45339;DHT22;31071;51.478;5.710;2023-04-25T04:20:03;5.60;99.90
45339;DHT22;31071;51.478;5.710;2023-04-25T04:22:29;5.70;99.90
45339;DHT22;31071;51.478;5.710;2023-04-25T04:24:54;5.70;99.90
45339;DHT22;31071;51.478;5.710;2023-04-25T04:27:22;5.70;99.90
45339;DHT22;31071;51.478;5.710;2023-04-25T04:29:48;5.70;99.90
45339;DHT22;31071;51.478;5.710;2023-04-25T04:32:14;5.70;99.90
45339;DHT22;31071;51.478;5.710;2023-04-25T04:34:40;5.70;99.90
45339;DHT22;31071;51.478;5.710;2023-04-25T04:37:06;5.80;99.90
45339;DHT22;31071;51.478;5.710;2023-04-25T04:39:33;5.80;99.90
45339;DHT22;31071;51.478;5.710;2023-04-25T04:41:58;5.90;99.90
45339;DHT22;31071;51.478;5.710;2023-04-25T04:44:25;6.00;99.90
45339;DHT22;31071;51.478;5.710;2023-04-25T04:46:50;6.00;99.90
45339;DHT22;31071;51.478;5.710;2023-04-25T04:49:16;6.00;99.90
45339;DHT22;31071;51.478;5.710;2023-04-25T04:51:42;6.00;99.90
45339;DHT22;31071;51.478;5.710;2023-04-25T04:54:09;6.00;99.90
45339;DHT22;31071;51.478;5.710;2023-04-25T04:56:35;6.00;99.90
45339;DHT22;31071;51.478;5.710;2023-04-25T04:59:00;6.10;99.90
45339;DHT22;31071;51.478;5.710;2023-04-25T05:01:28;6.10;99.90
45339;DHT22;31071;51.478;5.710;2023-04-25T05:03:55;6.20;99.90
45339;DHT22;31071;51.478;5.710;2023-04-25T05:06:25;6.20;99.90
45339;DHT22;31071;51.478;5.710;2023-04-25T05:08:51;7.40;99.90
45339;DHT22;31071;51.478;5.710;2023-04-25T05:11:18;6.30;99.90
45339;DHT22;31071;51.478;5.710;2023-04-25T05:13:43;6.30;99.90
45339;DHT22;31071;51.478;5.710;2023-04-25T05:16:09;6.30;99.90
45339;DHT22;31071;51.478;5.710;2023-04-25T05:18:34;6.30;99.90
45339;DHT22;31071;51.478;5.710;2023-04-25T05:21:00;6.40;99.90
45339;DHT22;31071;51.478;5.710;2023-04-25T05:23:25;6.50;99.90
45339;DHT22;31071;51.478;5.710;2023-04-25T05:25:53;6.50;99.90
45339;DHT22;31071;51.478;5.710;2023-04-25T05:28:18;6.50;99.90
45339;DHT22;31071;51.478;5.710;2023-04-25T05:30:44;6.50;99.90
45339;DHT22;31071;51.478;5.710;2023-04-25T05:33:09;6.60;99.90
45339;DHT22;31071;51.478;5.710;2023-04-25T05:35:35;6.60;99.90
45339;DHT22;31071;51.478;5.710;2023-04-25T05:38:00;6.60;99.90
45339;DHT22;31071;51.478;5.710;2023-04-25T05:40:26;6.60;99.90
45339;DHT22;31071;51.478;5.710;2023-04-25T05:42:52;6.50;99.90
45339;DHT22;31071;51.478;5.710;2023-04-25T05:45:17;6.50;99.90
45339;DHT22;31071;51.478;5.710;2023-04-25T05:47:43;6.50;99.90
45339;DHT22;31071;51.478;5.710;2023-04-25T05:50:09;6.60;99.90
45339;DHT22;31071;51.478;5.710;2023-04-25T05:52:35;6.70;99.90
45339;DHT22;31071;51.478;5.710;2023-04-25T05:55:00;6.80;99.90
45339;DHT22;31071;51.478;5.710;2023-04-25T05:57:26;6.90;99.90
45339;DHT22;31071;51.478;5.710;2023-04-25T05:59:53;6.90;99.90
45339;DHT22;31071;51.478;5.710;2023-04-25T06:02:19;7.00;99.90
45339;DHT22;31071;51.478;5.710;2023-04-25T06:04:46;7.10;99.90
45339;DHT22;31071;51.478;5.710;2023-04-25T06:07:12;7.20;99.90
45339;DHT22;31071;51.478;5.710;2023-04-25T06:09:38;7.30;99.90
45339;DHT22;31071;51.478;5.710;2023-04-25T06:12:05;7.60;99.90
45339;DHT22;31071;51.478;5.710;2023-04-25T06:14:31;7.50;99.90
45339;DHT22;31071;51.478;5.710;2023-04-25T06:16:56;7.80;99.90
45339;DHT22;31071;51.478;5.710;2023-04-25T06:19:22;7.70;99.90
45339;DHT22;31071;51.478;5.710;2023-04-25T06:21:47;7.70;99.90
45339;DHT22;31071;51.478;5.710;2023-04-25T06:24:13;7.80;99.90
45339;DHT22;31071;51.478;5.710;2023-04-25T06:26:38;7.90;99.90
45339;DHT22;31071;51.478;5.710;2023-04-25T06:29:04;8.00;99.90
45339;DHT22;31071;51.478;5.710;2023-04-25T06:31:29;8.10;99.90
45339;DHT22;31071;51.478;5.710;2023-04-25T06:33:57;8.00;99.90
45339;DHT22;31071;51.478;5.710;2023-04-25T06:36:23;10.30;99.90
45339;DHT22;31071;51.478;5.710;2023-04-25T06:38:53;8.10;99.90
45339;DHT22;31071;51.478;5.710;2023-04-25T06:41:20;8.40;99.90
45339;DHT22;31071;51.478;5.710;2023-04-25T06:43:46;8.60;99.90
45339;DHT22;31071;51.478;5.710;2023-04-25T06:46:11;8.70;99.90
45339;DHT22;31071;51.478;5.710;2023-04-25T06:48:37;8.60;99.90
45339;DHT22;31071;51.478;5.710;2023-04-25T06:51:02;8.70;99.90
45339;DHT22;31071;51.478;5.710;2023-04-25T06:53:28;8.80;99.90
45339;DHT22;31071;51.478;5.710;2023-04-25T06:55:54;8.80;99.90
45339;DHT22;31071;51.478;5.710;2023-04-25T06:58:19;9.20;99.90
45339;DHT22;31071;51.478;5.710;2023-04-25T07:00:45;9.20;99.90
45339;DHT22;31071;51.478;5.710;2023-04-25T07:03:10;8.80;99.90
45339;DHT22;31071;51.478;5.710;2023-04-25T07:05:37;8.60;99.90
45339;DHT22;31071;51.478;5.710;2023-04-25T07:08:02;8.40;99.90
45339;DHT22;31071;51.478;5.710;2023-04-25T07:10:28;8.50;99.90
45339;DHT22;31071;51.478;5.710;2023-04-25T07:12:54;8.80;99.90
45339;DHT22;31071;51.478;5.710;2023-04-25T07:15:19;9.70;99.90
45339;DHT22;31071;51.478;5.710;2023-04-25T07:17:45;10.40;99.30
45339;DHT22;31071;51.478;5.710;2023-04-25T07:20:10;9.60;99.70
45339;DHT22;31071;51.478;5.710;2023-04-25T07:22:36;10.10;99.90
45339;DHT22;31071;51.478;5.710;2023-04-25T07:25:02;9.70;99.80
45339;DHT22;31071;51.478;5.710;2023-04-25T07:27:29;9.60;99.80
45339;DHT22;31071;51.478;5.710;2023-04-25T07:29:55;9.50;99.50
45339;DHT22;31071;51.478;5.710;2023-04-25T07:32:20;9.70;98.20
45339;DHT22;31071;51.478;5.710;2023-04-25T07:34:46;10.50;98.80
45339;DHT22;31071;51.478;5.710;2023-04-25T07:37:11;10.90;96.10
45339;DHT22;31071;51.478;5.710;2023-04-25T07:39:37;10.40;96.40
45339;DHT22;31071;51.478;5.710;2023-04-25T07:42:03;10.20;97.50
45339;DHT22;31071;51.478;5.710;2023-04-25T07:44:29;10.20;98.80
45339;DHT22;31071;51.478;5.710;2023-04-25T07:46:55;10.30;97.40
45339;DHT22;31071;51.478;5.710;2023-04-25T07:49:21;10.50;96.10
45339;DHT22;31071;51.478;5.710;2023-04-25T07:51:47;10.90;97.30
45339;DHT22;31071;51.478;5.710;2023-04-25T07:54:14;11.00;95.60
45339;DHT22;31071;51.478;5.710;2023-04-25T07:56:39;11.20;94.60
45339;DHT22;31071;51.478;5.710;2023-04-25T07:59:05;11.20;94.70
45339;DHT22;31071;51.478;5.710;2023-04-25T08:01:31;11.60;92.60
45339;DHT22;31071;51.478;5.710;2023-04-25T08:03:56;12.00;92.80
45339;DHT22;31071;51.478;5.710;2023-04-25T08:06:22;12.30;89.90
45339;DHT22;31071;51.478;5.710;2023-04-25T08:08:47;11.70;90.50
45339;DHT22;31071;51.478;5.710;2023-04-25T08:11:13;11.20;91.90
45339;DHT22;31071;51.478;5.710;2023-04-25T08:13:38;10.30;91.70
45339;DHT22;31071;51.478;5.710;2023-04-25T08:16:04;10.00;94.30
45339;DHT22;31071;51.478;5.710;2023-04-25T08:18:30;11.30;93.40
45339;DHT22;31071;51.478;5.710;2023-04-25T08:20:56;10.80;94.10
45339;DHT22;31071;51.478;5.710;2023-04-25T08:23:21;10.90;93.60
45339;DHT22;31071;51.478;5.710;2023-04-25T08:25:47;11.60;91.40
45339;DHT22;31071;51.478;5.710;2023-04-25T08:28:12;11.80;90.70
45339;DHT22;31071;51.478;5.710;2023-04-25T08:30:38;11.70;89.90
45339;DHT22;31071;51.478;5.710;2023-04-25T08:33:03;11.40;89.20
45339;DHT22;31071;51.478;5.710;2023-04-25T08:35:29;11.50;92.40
45339;DHT22;31071;51.478;5.710;2023-04-25T08:37:54;11.60;91.80
45339;DHT22;31071;51.478;5.710;2023-04-25T08:40:22;11.20;91.10
45339;DHT22;31071;51.478;5.710;2023-04-25T08:42:53;10.80;91.10
45339;DHT22;31071;51.478;5.710;2023-04-25T08:45:19;10.60;93.10
45339;DHT22;31071;51.478;5.710;2023-04-25T08:47:45;10.70;92.60
45339;DHT22;31071;51.478;5.710;2023-04-25T08:50:11;10.90;91.90
45339;DHT22;31071;51.478;5.710;2023-04-25T08:52:43;10.50;91.30
45339;DHT22;31071;51.478;5.710;2023-04-25T08:55:09;10.60;92.30
45339;DHT22;31071;51.478;5.710;2023-04-25T08:57:37;10.80;90.50
45339;DHT22;31071;51.478;5.710;2023-04-25T09:00:03;11.20;90.10
45339;DHT22;31071;51.478;5.710;2023-04-25T09:02:29;11.20;89.50
45339;DHT22;31071;51.478;5.710;2023-04-25T09:04:55;10.80;90.00
45339;DHT22;31071;51.478;5.710;2023-04-25T09:07:21;10.60;90.50
45339;DHT22;31071;51.478;5.710;2023-04-25T09:09:47;10.50;90.80
45339;DHT22;31071;51.478;5.710;2023-04-25T09:12:13;10.30;92.90
45339;DHT22;31071;51.478;5.710;2023-04-25T09:14:38;10.40;93.00
45339;DHT22;31071;51.478;5.710;2023-04-25T09:17:05;10.30;91.70
45339;DHT22;31071;51.478;5.710;2023-04-25T09:19:34;10.30;92.20
45339;DHT22;31071;51.478;5.710;2023-04-25T09:22:02;10.50;92.70
45339;DHT22;31071;51.478;5.710;2023-04-25T09:24:39;10.50;93.10
45339;DHT22;31071;51.478;5.710;2023-04-25T09:27:20;11.50;91.50
45339;DHT22;31071;51.478;5.710;2023-04-25T09:29:57;12.60;81.00
45339;DHT22;31071;51.478;5.710;2023-04-25T09:32:23;13.60;83.00
45339;DHT22;31071;51.478;5.710;2023-04-25T09:34:54;14.90;75.30
45339;DHT22;31071;51.478;5.710;2023-04-25T09:37:20;15.90;71.60
45339;DHT22;31071;51.478;5.710;2023-04-25T09:39:53;15.80;70.10
45339;DHT22;31071;51.478;5.710;2023-04-25T09:42:22;14.70;73.20
45339;DHT22;31071;51.478;5.710;2023-04-25T09:44:51;14.60;70.10
45339;DHT22;31071;51.478;5.710;2023-04-25T09:47:17;14.30;70.10
45339;DHT22;31071;51.478;5.710;2023-04-25T09:49:43;15.20;71.60
45339;DHT22;31071;51.478;5.710;2023-04-25T09:52:14;14.40;68.40
45339;DHT22;31071;51.478;5.710;2023-04-25T09:54:40;13.50;73.30
45339;DHT22;31071;51.478;5.710;2023-04-25T09:57:17;13.20;78.20
45339;DHT22;31071;51.478;5.710;2023-04-25T09:59:46;13.00;76.60
45339;DHT22;31071;51.478;5.710;2023-04-25T10:02:14;12.20;76.30
45339;DHT22;31071;51.478;5.710;2023-04-25T10:04:41;11.60;81.80
45339;DHT22;31071;51.478;5.710;2023-04-25T10:07:08;10.50;82.80
45339;DHT22;31071;51.478;5.710;2023-04-25T10:09:37;10.10;83.50
45339;DHT22;31071;51.478;5.710;2023-04-25T10:12:03;10.00;86.00
45339;DHT22;31071;51.478;5.710;2023-04-25T10:14:31;10.30;86.60
45339;DHT22;31071;51.478;5.710;2023-04-25T10:16:58;10.00;89.70
45339;DHT22;31071;51.478;5.710;2023-04-25T10:19:25;9.50;91.20
45339;DHT22;31071;51.478;5.710;2023-04-25T10:24:39;9.10;96.40
45339;DHT22;31071;51.478;5.710;2023-04-25T10:27:05;9.00;95.20
45339;DHT22;31071;51.478;5.710;2023-04-25T10:29:31;9.30;95.50
45339;DHT22;31071;51.478;5.710;2023-04-25T10:31:57;10.00;95.00
45339;DHT22;31071;51.478;5.710;2023-04-25T10:34:43;11.30;92.10
45339;DHT22;31071;51.478;5.710;2023-04-25T10:37:10;13.00;77.40
45339;DHT22;31071;51.478;5.710;2023-04-25T10:39:38;14.10;70.10
45339;DHT22;31071;51.478;5.710;2023-04-25T10:42:04;14.80;69.60
45339;DHT22;31071;51.478;5.710;2023-04-25T10:44:30;15.00;62.50
45339;DHT22;31071;51.478;5.710;2023-04-25T10:46:57;15.50;62.30
45339;DHT22;31071;51.478;5.710;2023-04-25T10:49:42;15.50;60.00
45339;DHT22;31071;51.478;5.710;2023-04-25T10:54:41;15.30;57.10
45339;DHT22;31071;51.478;5.710;2023-04-25T10:57:06;16.10;60.00
45339;DHT22;31071;51.478;5.710;2023-04-25T10:59:32;16.60;56.90
45339;DHT22;31071;51.478;5.710;2023-04-25T11:01:57;16.80;57.20
45339;DHT22;31071;51.478;5.710;2023-04-25T11:04:31;17.70;57.60
45339;DHT22;31071;51.478;5.710;2023-04-25T11:07:22;17.80;54.20
45339;DHT22;31071;51.478;5.710;2023-04-25T11:09:49;16.70;55.90
45339;DHT22;31071;51.478;5.710;2023-04-25T11:12:15;16.70;58.20
45339;DHT22;31071;51.478;5.710;2023-04-25T11:14:41;17.30;55.90
45339;DHT22;31071;51.478;5.710;2023-04-25T11:17:07;17.60;55.40
45339;DHT22;31071;51.478;5.710;2023-04-25T11:19:32;18.00;58.70
45339;DHT22;31071;51.478;5.710;2023-04-25T11:21:59;20.60;55.00
45339;DHT22;31071;51.478;5.710;2023-04-25T11:24:29;16.00;56.60
45339;DHT22;31071;51.478;5.710;2023-04-25T11:26:55;14.70;59.60
45339;DHT22;31071;51.478;5.710;2023-04-25T11:29:27;13.70;64.20
45339;DHT22;31071;51.478;5.710;2023-04-25T11:31:54;12.60;70.70
45339;DHT22;31071;51.478;5.710;2023-04-25T11:34:23;11.40;90.50
45339;DHT22;31071;51.478;5.710;2023-04-25T11:36:49;10.10;95.30
45339;DHT22;31071;51.478;5.710;2023-04-25T11:39:15;9.60;99.90
45339;DHT22;31071;51.478;5.710;2023-04-25T11:41:41;9.60;99.90
45339;DHT22;31071;51.478;5.710;2023-04-25T11:44:07;9.60;99.90
45339;DHT22;31071;51.478;5.710;2023-04-25T11:46:36;9.50;99.90
45339;DHT22;31071;51.478;5.710;2023-04-25T11:49:02;9.40;99.90
45339;DHT22;31071;51.478;5.710;2023-04-25T11:51:28;8.90;99.90
45339;DHT22;31071;51.478;5.710;2023-04-25T11:53:53;8.70;99.90
45339;DHT22;31071;51.478;5.710;2023-04-25T11:56:20;9.60;99.90
45339;DHT22;31071;51.478;5.710;2023-04-25T11:58:58;8.90;99.90
45339;DHT22;31071;51.478;5.710;2023-04-25T12:01:29;9.00;99.90
45339;DHT22;31071;51.478;5.710;2023-04-25T12:03:55;9.20;99.90
45339;DHT22;31071;51.478;5.710;2023-04-25T12:06:21;9.40;99.90
45339;DHT22;31071;51.478;5.710;2023-04-25T12:09:03;9.80;99.90
45339;DHT22;31071;51.478;5.710;2023-04-25T12:11:32;10.70;99.90
45339;DHT22;31071;51.478;5.710;2023-04-25T12:14:05;11.60;99.90
45339;DHT22;31071;51.478;5.710;2023-04-25T12:16:52;12.40;97.60
45339;DHT22;31071;51.478;5.710;2023-04-25T12:19:19;14.10;92.10
45339;DHT22;31071;51.478;5.710;2023-04-25T12:21:45;15.00;86.00
45339;DHT22;31071;51.478;5.710;2023-04-25T12:24:13;15.90;81.90
45339;DHT22;31071;51.478;5.710;2023-04-25T12:27:06;16.00;71.60
45339;DHT22;31071;51.478;5.710;2023-04-25T12:29:34;15.30;70.90
45339;DHT22;31071;51.478;5.710;2023-04-25T12:32:11;16.20;69.90
45339;DHT22;31071;51.478;5.710;2023-04-25T12:34:37;17.40;68.80
45339;DHT22;31071;51.478;5.710;2023-04-25T12:37:06;18.10;65.60
45339;DHT22;31071;51.478;5.710;2023-04-25T12:39:31;19.40;63.90
45339;DHT22;31071;51.478;5.710;2023-04-25T12:41:57;17.20;58.30
45339;DHT22;31071;51.478;5.710;2023-04-25T12:44:22;17.00;61.70
45339;DHT22;31071;51.478;5.710;2023-04-25T12:46:48;16.30;59.10
45339;DHT22;31071;51.478;5.710;2023-04-25T12:49:14;17.30;60.10
45339;DHT22;31071;51.478;5.710;2023-04-25T12:51:40;16.40;59.20
45339;DHT22;31071;51.478;5.710;2023-04-25T12:54:06;18.80;61.40
45339;DHT22;31071;51.478;5.710;2023-04-25T13:06:19;12.50;64.50
45339;DHT22;31071;51.478;5.710;2023-04-25T13:08:45;10.00;63.90
45339;DHT22;31071;51.478;5.710;2023-04-25T13:11:15;17.10;67.60
45339;DHT22;31071;51.478;5.710;2023-04-25T13:13:41;15.20;56.50
45339;DHT22;31071;51.478;5.710;2023-04-25T13:16:07;16.50;53.60
45339;DHT22;31071;51.478;5.710;2023-04-25T13:18:34;16.90;52.20
45339;DHT22;31071;51.478;5.710;2023-04-25T13:21:00;16.90;50.70
45339;DHT22;31071;51.478;5.710;2023-04-25T13:23:27;17.90;50.70
45339;DHT22;31071;51.478;5.710;2023-04-25T13:25:53;16.80;51.10
45339;DHT22;31071;51.478;5.710;2023-04-25T13:28:20;16.50;56.10
45339;DHT22;31071;51.478;5.710;2023-04-25T13:30:46;15.40;60.30
45339;DHT22;31071;51.478;5.710;2023-04-25T13:33:14;14.90;66.40
45339;DHT22;31071;51.478;5.710;2023-04-25T13:35:41;13.00;68.00
45339;DHT22;31071;51.478;5.710;2023-04-25T13:38:07;12.30;73.90
45339;DHT22;31071;51.478;5.710;2023-04-25T13:40:33;12.30;74.40
45339;DHT22;31071;51.478;5.710;2023-04-25T13:42:58;12.70;72.80
45339;DHT22;31071;51.478;5.710;2023-04-25T13:45:24;13.90;67.00
45339;DHT22;31071;51.478;5.710;2023-04-25T13:47:50;15.10;63.30
45339;DHT22;31071;51.478;5.710;2023-04-25T13:50:16;15.70;57.20
45339;DHT22;31071;51.478;5.710;2023-04-25T13:52:42;15.20;54.70
45339;DHT22;31071;51.478;5.710;2023-04-25T13:55:08;15.20;54.40
45339;DHT22;31071;51.478;5.710;2023-04-25T13:57:34;16.80;55.20
45339;DHT22;31071;51.478;5.710;2023-04-25T14:00:00;17.30;55.80
45339;DHT22;31071;51.478;5.710;2023-04-25T14:02:31;17.90;53.90
45339;DHT22;31071;51.478;5.710;2023-04-25T14:04:57;16.90;51.00
45339;DHT22;31071;51.478;5.710;2023-04-25T14:07:22;17.00;53.20
45339;DHT22;31071;51.478;5.710;2023-04-25T14:09:47;15.80;53.80
45339;DHT22;31071;51.478;5.710;2023-04-25T14:12:13;16.30;54.00
45339;DHT22;31071;51.478;5.710;2023-04-25T14:14:40;17.20;53.00
45339;DHT22;31071;51.478;5.710;2023-04-25T14:17:05;16.30;54.70
45339;DHT22;31071;51.478;5.710;2023-04-25T14:19:32;15.80;54.00
45339;DHT22;31071;51.478;5.710;2023-04-25T14:21:57;16.30;57.60
45339;DHT22;31071;51.478;5.710;2023-04-25T14:24:23;16.80;58.90
45339;DHT22;31071;51.478;5.710;2023-04-25T14:26:48;15.50;56.30
45339;DHT22;31071;51.478;5.710;2023-04-25T14:29:14;14.20;59.60
45339;DHT22;31071;51.478;5.710;2023-04-25T14:31:40;13.30;63.70
45339;DHT22;31071;51.478;5.710;2023-04-25T14:34:06;12.70;68.20
45339;DHT22;31071;51.478;5.710;2023-04-25T14:36:33;12.50;68.40
45339;DHT22;31071;51.478;5.710;2023-04-25T14:38:59;12.30;69.90
45339;DHT22;31071;51.478;5.710;2023-04-25T14:41:25;12.50;70.00
45339;DHT22;31071;51.478;5.710;2023-04-25T14:43:52;13.20;68.80
45339;DHT22;31071;51.478;5.710;2023-04-25T14:46:22;14.20;65.00
45339;DHT22;31071;51.478;5.710;2023-04-25T14:48:48;14.40;60.50
45339;DHT22;31071;51.478;5.710;2023-04-25T14:51:14;14.40;59.60
45339;DHT22;31071;51.478;5.710;2023-04-25T14:53:40;14.20;57.40
45339;DHT22;31071;51.478;5.710;2023-04-25T14:56:06;13.90;63.60
45339;DHT22;31071;51.478;5.710;2023-04-25T14:58:32;14.90;63.00
45339;DHT22;31071;51.478;5.710;2023-04-25T15:00:59;13.50;63.10
45339;DHT22;31071;51.478;5.710;2023-04-25T15:03:24;13.50;61.90
45339;DHT22;31071;51.478;5.710;2023-04-25T15:05:50;12.80;64.20
45339;DHT22;31071;51.478;5.710;2023-04-25T15:08:15;12.70;64.20
45339;DHT22;31071;51.478;5.710;2023-04-25T15:10:41;13.00;65.60
45339;DHT22;31071;51.478;5.710;2023-04-25T15:13:06;13.30;66.10
45339;DHT22;31071;51.478;5.710;2023-04-25T15:15:32;13.60;64.00
45339;DHT22;31071;51.478;5.710;2023-04-25T15:17:58;13.40;64.10
45339;DHT22;31071;51.478;5.710;2023-04-25T15:20:24;13.40;66.00
45339;DHT22;31071;51.478;5.710;2023-04-25T15:22:50;13.20;65.60
45339;DHT22;31071;51.478;5.710;2023-04-25T15:25:16;12.80;63.90
45339;DHT22;31071;51.478;5.710;2023-04-25T15:27:45;13.10;64.70
45339;DHT22;31071;51.478;5.710;2023-04-25T15:30:14;13.20;66.90
45339;DHT22;31071;51.478;5.710;2023-04-25T15:32:44;13.50;62.40
45339;DHT22;31071;51.478;5.710;2023-04-25T15:35:10;13.50;61.90
45339;DHT22;31071;51.478;5.710;2023-04-25T15:37:36;13.50;61.10
45339;DHT22;31071;51.478;5.710;2023-04-25T15:42:36;13.00;64.80
45339;DHT22;31071;51.478;5.710;2023-04-25T15:45:06;13.20;65.10
45339;DHT22;31071;51.478;5.710;2023-04-25T15:47:34;13.20;67.00
45339;DHT22;31071;51.478;5.710;2023-04-25T15:50:00;13.20;64.90
45339;DHT22;31071;51.478;5.710;2023-04-25T15:52:26;13.20;65.50
45339;DHT22;31071;51.478;5.710;2023-04-25T15:54:52;13.30;65.20